sensor_id;sensor_type;location;lat;lon;timestamp;temperature;humidity
12130;DHT22;6128;59.340;18.040;2023-04-25T00:01:45;4.60;99.90
12130;DHT22;6128;59.340;18.040;2023-04-25T00:04:12;4.70;99.90
12130;DHT22;6128;59.340;18.040;2023-04-25T00:06:39;4.60;99.90
12130;DHT22;6128;59.340;18.040;2023-04-25T00:09:07;4.60;99.90
12130;DHT22;6128;59.340;18.040;2023-04-25T00:11:35;4.60;99.90
12130;DHT22;6128;59.340;18.040;2023-04-25T00:14:05;4.50;99.90
12130;DHT22;6128;59.340;18.040;2023-04-25T00:16:32;4.50;99.90
12130;DHT22;6128;59.340;18.040;2023-04-25T00:19:00;4.60;99.90
12130;DHT22;6128;59.340;18.040;2023-04-25T00:21:29;4.50;99.90
12130;DHT22;6128;59.340;18.040;2023-04-25T00:23:57;4.50;99.90
12130;DHT22;6128;59.340;18.040;2023-04-25T00:26:24;4.50;99.90
12130;DHT22;6128;59.340;18.040;2023-04-25T00:28:51;4.40;99.90
12130;DHT22;6128;59.340;18.040;2023-04-25T00:31:20;4.40;99.90
12130;DHT22;6128;59.340;18.040;2023-04-25T00:33:48;4.30;99.90
12130;DHT22;6128;59.340;18.040;2023-04-25T00:36:15;4.20;99.90
12130;DHT22;6128;59.340;18.040;2023-04-25T00:38:42;4.10;99.90
12130;DHT22;6128;59.340;18.040;2023-04-25T00:41:10;4.10;99.90
12130;DHT22;6128;59.340;18.040;2023-04-25T00:43:37;4.10;99.90
12130;DHT22;6128;59.340;18.040;2023-04-25T00:46:04;4.10;99.90
12130;DHT22;6128;59.340;18.040;2023-04-25T00:48:33;4.10;99.90
12130;DHT22;6128;59.340;18.040;2023-04-25T00:51:00;4.20;99.90
12130;DHT22;6128;59.340;18.040;2023-04-25T00:53:28;4.20;99.90
12130;DHT22;6128;59.340;18.040;2023-04-25T00:55:57;4.20;99.90
12130;DHT22;6128;59.340;18.040;2023-04-25T00:58:25;4.20;99.90
12130;DHT22;6128;59.340;18.040;2023-04-25T01:00:52;4.10;99.90
12130;DHT22;6128;59.340;18.040;2023-04-25T01:03:19;4.20;99.90
12130;DHT22;6128;59.340;18.040;2023-04-25T01:05:48;4.20;99.90
12130;DHT22;6128;59.340;18.040;2023-04-25T01:08:16;4.20;99.90
12130;DHT22;6128;59.340;18.040;2023-04-25T01:10:43;4.10;99.90
12130;DHT22;6128;59.340;18.040;2023-04-25T01:13:10;4.00;99.90
12130;DHT22;6128;59.340;18.040;2023-04-25T01:15:37;3.90;99.90
12130;DHT22;6128;59.340;18.040;2023-04-25T01:18:05;3.90;99.90
12130;DHT22;6128;59.340;18.040;2023-04-25T01:20:33;3.90;99.90
12130;DHT22;6128;59.340;18.040;2023-04-25T01:23:02;3.80;99.90
12130;DHT22;6128;59.340;18.040;2023-04-25T01:25:30;3.80;99.90
12130;DHT22;6128;59.340;18.040;2023-04-25T01:27:57;3.70;99.90
12130;DHT22;6128;59.340;18.040;2023-04-25T01:30:26;3.60;99.90
12130;DHT22;6128;59.340;18.040;2023-04-25T01:32:55;3.50;99.90
12130;DHT22;6128;59.340;18.040;2023-04-25T01:35:22;3.50;99.90
12130;DHT22;6128;59.340;18.040;2023-04-25T01:37:51;3.60;99.90
12130;DHT22;6128;59.340;18.040;2023-04-25T01:40:20;3.60;99.90
12130;DHT22;6128;59.340;18.040;2023-04-25T01:42:48;3.50;99.90
12130;DHT22;6128;59.340;18.040;2023-04-25T01:45:16;3.50;99.90
12130;DHT22;6128;59.340;18.040;2023-04-25T01:47:44;3.50;99.90
12130;DHT22;6128;59.340;18.040;2023-04-25T01:50:15;3.50;99.90
12130;DHT22;6128;59.340;18.040;2023-04-25T01:52:42;3.50;99.90
12130;DHT22;6128;59.340;18.040;2023-04-25T01:55:10;3.60;99.90
12130;DHT22;6128;59.340;18.040;2023-04-25T01:57:38;3.60;99.90
12130;DHT22;6128;59.340;18.040;2023-04-25T02:00:07;3.60;99.90
12130;DHT22;6128;59.340;18.040;2023-04-25T02:02:34;3.70;99.90
12130;DHT22;6128;59.340;18.040;2023-04-25T02:05:01;3.60;99.90
12130;DHT22;6128;59.340;18.040;2023-04-25T02:07:28;3.60;99.90
12130;DHT22;6128;59.340;18.040;2023-04-25T02:09:56;3.60;99.90
12130;DHT22;6128;59.340;18.040;2023-04-25T02:12:23;3.60;99.90
12130;DHT22;6128;59.340;18.040;2023-04-25T02:14:53;3.60;99.90
12130;DHT22;6128;59.340;18.040;2023-04-25T02:17:20;3.60;99.90
12130;DHT22;6128;59.340;18.040;2023-04-25T02:19:47;3.60;99.90
12130;DHT22;6128;59.340;18.040;2023-04-25T02:22:14;3.60;99.90
12130;DHT22;6128;59.340;18.040;2023-04-25T02:24:41;3.60;99.90
12130;DHT22;6128;59.340;18.040;2023-04-25T02:27:09;3.60;99.90
12130;DHT22;6128;59.340;18.040;2023-04-25T02:29:36;3.60;99.90
12130;DHT22;6128;59.340;18.040;2023-04-25T02:32:04;3.60;99.90
12130;DHT22;6128;59.340;18.040;2023-04-25T02:34:31;3.50;99.90
12130;DHT22;6128;59.340;18.040;2023-04-25T02:36:59;3.60;99.90
12130;DHT22;6128;59.340;18.040;2023-04-25T02:39:26;3.60;99.90
12130;DHT22;6128;59.340;18.040;2023-04-25T02:41:53;3.60;99.90
12130;DHT22;6128;59.340;18.040;2023-04-25T02:44:20;3.70;99.90
12130;DHT22;6128;59.340;18.040;2023-04-25T02:46:47;3.70;99.90
12130;DHT22;6128;59.340;18.040;2023-04-25T02:49:16;3.60;99.90
12130;DHT22;6128;59.340;18.040;2023-04-25T02:51:43;3.60;99.90
12130;DHT22;6128;59.340;18.040;2023-04-25T02:54:10;3.60;99.90
12130;DHT22;6128;59.340;18.040;2023-04-25T02:56:37;3.50;99.90
12130;DHT22;6128;59.340;18.040;2023-04-25T02:59:04;3.50;99.90
12130;DHT22;6128;59.340;18.040;2023-04-25T03:01:31;3.50;99.90
12130;DHT22;6128;59.340;18.040;2023-04-25T03:04:39;3.50;99.90
12130;DHT22;6128;59.340;18.040;2023-04-25T03:07:38;3.50;99.90
12130;DHT22;6128;59.340;18.040;2023-04-25T03:10:10;3.50;99.90
12130;DHT22;6128;59.340;18.040;2023-04-25T03:12:38;3.50;99.90
12130;DHT22;6128;59.340;18.040;2023-04-25T03:15:06;3.60;99.90
12130;DHT22;6128;59.340;18.040;2023-04-25T03:17:33;3.50;99.90
12130;DHT22;6128;59.340;18.040;2023-04-25T03:20:02;3.50;99.90
12130;DHT22;6128;59.340;18.040;2023-04-25T03:22:31;3.50;99.90
12130;DHT22;6128;59.340;18.040;2023-04-25T03:24:58;3.40;99.90
12130;DHT22;6128;59.340;18.040;2023-04-25T03:27:25;3.40;99.90
12130;DHT22;6128;59.340;18.040;2023-04-25T03:29:52;3.50;99.90
12130;DHT22;6128;59.340;18.040;2023-04-25T03:32:19;3.50;99.90
12130;DHT22;6128;59.340;18.040;2023-04-25T03:34:46;3.60;99.90
12130;DHT22;6128;59.340;18.040;2023-04-25T03:37:15;3.60;99.90
12130;DHT22;6128;59.340;18.040;2023-04-25T03:39:42;3.60;99.90
12130;DHT22;6128;59.340;18.040;2023-04-25T03:42:09;3.60;99.90
12130;DHT22;6128;59.340;18.040;2023-04-25T03:44:36;3.60;99.90
12130;DHT22;6128;59.340;18.040;2023-04-25T03:47:03;3.60;99.90
12130;DHT22;6128;59.340;18.040;2023-04-25T03:49:31;3.60;99.90
12130;DHT22;6128;59.340;18.040;2023-04-25T03:51:58;3.70;99.90
12130;DHT22;6128;59.340;18.040;2023-04-25T03:54:27;3.70;99.90
12130;DHT22;6128;59.340;18.040;2023-04-25T03:56:54;3.60;99.90
12130;DHT22;6128;59.340;18.040;2023-04-25T03:59:21;3.60;99.90
12130;DHT22;6128;59.340;18.040;2023-04-25T04:01:48;3.60;99.90
12130;DHT22;6128;59.340;18.040;2023-04-25T04:04:16;3.60;99.90
12130;DHT22;6128;59.340;18.040;2023-04-25T04:06:43;3.60;99.90
12130;DHT22;6128;59.340;18.040;2023-04-25T04:09:10;3.50;99.90
12130;DHT22;6128;59.340;18.040;2023-04-25T04:11:39;3.50;99.90
12130;DHT22;6128;59.340;18.040;2023-04-25T04:14:07;3.50;99.90
12130;DHT22;6128;59.340;18.040;2023-04-25T04:16:35;3.50;99.90
12130;DHT22;6128;59.340;18.040;2023-04-25T04:19:03;3.50;99.90
12130;DHT22;6128;59.340;18.040;2023-04-25T04:21:30;3.50;99.90
12130;DHT22;6128;59.340;18.040;2023-04-25T04:23:57;3.60;99.90
12130;DHT22;6128;59.340;18.040;2023-04-25T04:26:25;3.70;99.90
12130;DHT22;6128;59.340;18.040;2023-04-25T04:28:54;3.70;99.90
12130;DHT22;6128;59.340;18.040;2023-04-25T04:31:21;3.70;99.90
12130;DHT22;6128;59.340;18.040;2023-04-25T04:33:49;3.70;99.90
12130;DHT22;6128;59.340;18.040;2023-04-25T04:36:17;3.70;99.90
12130;DHT22;6128;59.340;18.040;2023-04-25T04:38:45;3.80;99.90
12130;DHT22;6128;59.340;18.040;2023-04-25T04:41:12;3.80;99.90
12130;DHT22;6128;59.340;18.040;2023-04-25T04:43:40;3.80;99.90
12130;DHT22;6128;59.340;18.040;2023-04-25T04:46:08;3.80;99.90
12130;DHT22;6128;59.340;18.040;2023-04-25T04:48:38;3.90;99.90
12130;DHT22;6128;59.340;18.040;2023-04-25T04:51:06;3.90;99.90
12130;DHT22;6128;59.340;18.040;2023-04-25T04:53:33;4.00;99.90
12130;DHT22;6128;59.340;18.040;2023-04-25T04:56:00;4.00;99.90
12130;DHT22;6128;59.340;18.040;2023-04-25T04:58:27;4.10;99.90
12130;DHT22;6128;59.340;18.040;2023-04-25T05:00:55;4.10;99.90
12130;DHT22;6128;59.340;18.040;2023-04-25T05:03:24;4.10;99.90
12130;DHT22;6128;59.340;18.040;2023-04-25T05:05:51;4.10;99.90
12130;DHT22;6128;59.340;18.040;2023-04-25T05:08:18;4.00;99.90
12130;DHT22;6128;59.340;18.040;2023-04-25T05:10:45;4.00;99.90
12130;DHT22;6128;59.340;18.040;2023-04-25T05:13:12;4.10;99.90
12130;DHT22;6128;59.340;18.040;2023-04-25T05:15:39;4.10;99.90
12130;DHT22;6128;59.340;18.040;2023-04-25T05:18:06;4.10;99.90
12130;DHT22;6128;59.340;18.040;2023-04-25T05:20:35;4.10;99.90
12130;DHT22;6128;59.340;18.040;2023-04-25T05:23:02;4.10;99.90
12130;DHT22;6128;59.340;18.040;2023-04-25T05:25:29;4.10;99.90
12130;DHT22;6128;59.340;18.040;2023-04-25T05:27:56;4.00;99.90
12130;DHT22;6128;59.340;18.040;2023-04-25T05:30:24;4.00;99.90
12130;DHT22;6128;59.340;18.040;2023-04-25T05:32:51;3.90;99.90
12130;DHT22;6128;59.340;18.040;2023-04-25T05:35:18;3.90;99.90
12130;DHT22;6128;59.340;18.040;2023-04-25T05:37:47;4.00;99.90
12130;DHT22;6128;59.340;18.040;2023-04-25T05:40:14;4.00;99.90
12130;DHT22;6128;59.340;18.040;2023-04-25T05:42:41;4.10;99.90
12130;DHT22;6128;59.340;18.040;2023-04-25T05:45:09;4.10;99.90
12130;DHT22;6128;59.340;18.040;2023-04-25T05:47:36;4.10;99.90
12130;DHT22;6128;59.340;18.040;2023-04-25T05:50:03;4.20;99.90
12130;DHT22;6128;59.340;18.040;2023-04-25T05:52:31;4.20;99.90
12130;DHT22;6128;59.340;18.040;2023-04-25T05:54:59;4.30;99.90
12130;DHT22;6128;59.340;18.040;2023-04-25T05:57:27;4.30;99.90
12130;DHT22;6128;59.340;18.040;2023-04-25T05:59:54;4.40;99.90
12130;DHT22;6128;59.340;18.040;2023-04-25T06:02:21;4.50;99.90
12130;DHT22;6128;59.340;18.040;2023-04-25T06:04:49;4.50;99.90
12130;DHT22;6128;59.340;18.040;2023-04-25T06:07:17;4.60;99.90
12130;DHT22;6128;59.340;18.040;2023-04-25T06:09:44;4.60;99.90
12130;DHT22;6128;59.340;18.040;2023-04-25T06:12:12;4.50;99.90
12130;DHT22;6128;59.340;18.040;2023-04-25T06:14:40;4.50;99.90
12130;DHT22;6128;59.340;18.040;2023-04-25T06:17:07;4.50;99.90
12130;DHT22;6128;59.340;18.040;2023-04-25T06:19:35;4.50;99.90
12130;DHT22;6128;59.340;18.040;2023-04-25T06:22:02;4.50;99.90
12130;DHT22;6128;59.340;18.040;2023-04-25T06:24:29;4.50;99.90
12130;DHT22;6128;59.340;18.040;2023-04-25T06:26:57;4.50;99.90
12130;DHT22;6128;59.340;18.040;2023-04-25T06:29:26;4.50;99.90
12130;DHT22;6128;59.340;18.040;2023-04-25T06:31:53;4.50;99.90
12130;DHT22;6128;59.340;18.040;2023-04-25T06:34:20;4.50;99.90
12130;DHT22;6128;59.340;18.040;2023-04-25T06:36:47;4.50;99.90
12130;DHT22;6128;59.340;18.040;2023-04-25T06:39:14;4.50;99.90
12130;DHT22;6128;59.340;18.040;2023-04-25T06:41:42;4.50;99.90
12130;DHT22;6128;59.340;18.040;2023-04-25T06:44:09;4.60;99.90
12130;DHT22;6128;59.340;18.040;2023-04-25T06:46:37;4.60;99.90
12130;DHT22;6128;59.340;18.040;2023-04-25T06:49:04;4.60;99.90
12130;DHT22;6128;59.340;18.040;2023-04-25T06:51:32;4.60;99.90
12130;DHT22;6128;59.340;18.040;2023-04-25T06:53:59;4.70;99.90
12130;DHT22;6128;59.340;18.040;2023-04-25T06:56:26;4.90;99.90
12130;DHT22;6128;59.340;18.040;2023-04-25T06:58:55;4.90;99.90
12130;DHT22;6128;59.340;18.040;2023-04-25T07:01:22;5.00;99.90
12130;DHT22;6128;59.340;18.040;2023-04-25T07:03:50;5.00;99.90
12130;DHT22;6128;59.340;18.040;2023-04-25T07:06:18;5.00;99.90
12130;DHT22;6128;59.340;18.040;2023-04-25T07:08:45;5.10;99.90
12130;DHT22;6128;59.340;18.040;2023-04-25T07:11:12;5.10;99.90
12130;DHT22;6128;59.340;18.040;2023-04-25T07:13:39;5.10;99.90
12130;DHT22;6128;59.340;18.040;2023-04-25T07:16:07;5.10;99.90
12130;DHT22;6128;59.340;18.040;2023-04-25T07:18:34;5.20;99.90
12130;DHT22;6128;59.340;18.040;2023-04-25T07:21:03;5.30;99.90
12130;DHT22;6128;59.340;18.040;2023-04-25T07:23:30;5.40;99.90
12130;DHT22;6128;59.340;18.040;2023-04-25T07:25:57;5.40;99.90
12130;DHT22;6128;59.340;18.040;2023-04-25T07:28:27;5.60;99.90
12130;DHT22;6128;59.340;18.040;2023-04-25T07:30:54;5.60;99.90
12130;DHT22;6128;59.340;18.040;2023-04-25T07:33:21;5.60;99.90
12130;DHT22;6128;59.340;18.040;2023-04-25T07:35:49;5.70;99.90
12130;DHT22;6128;59.340;18.040;2023-04-25T07:38:17;5.80;99.90
12130;DHT22;6128;59.340;18.040;2023-04-25T07:40:44;5.90;99.90
12130;DHT22;6128;59.340;18.040;2023-04-25T07:43:11;6.00;99.90
12130;DHT22;6128;59.340;18.040;2023-04-25T07:45:42;6.00;99.90
12130;DHT22;6128;59.340;18.040;2023-04-25T07:48:09;6.10;99.90
12130;DHT22;6128;59.340;18.040;2023-04-25T07:50:36;6.20;99.90
12130;DHT22;6128;59.340;18.040;2023-04-25T07:53:04;6.30;99.90
12130;DHT22;6128;59.340;18.040;2023-04-25T07:55:32;6.40;99.90
12130;DHT22;6128;59.340;18.040;2023-04-25T07:57:59;6.40;99.90
12130;DHT22;6128;59.340;18.040;2023-04-25T08:00:27;6.50;99.90
12130;DHT22;6128;59.340;18.040;2023-04-25T08:02:55;6.60;99.90
12130;DHT22;6128;59.340;18.040;2023-04-25T08:05:22;6.70;99.90
12130;DHT22;6128;59.340;18.040;2023-04-25T08:07:51;6.70;99.90
12130;DHT22;6128;59.340;18.040;2023-04-25T08:10:18;6.80;99.90
12130;DHT22;6128;59.340;18.040;2023-04-25T08:12:46;6.80;99.90
12130;DHT22;6128;59.340;18.040;2023-04-25T08:15:13;7.00;99.90
12130;DHT22;6128;59.340;18.040;2023-04-25T08:17:41;7.10;99.90
12130;DHT22;6128;59.340;18.040;2023-04-25T08:20:10;7.20;99.90
12130;DHT22;6128;59.340;18.040;2023-04-25T08:22:37;7.20;99.90
12130;DHT22;6128;59.340;18.040;2023-04-25T08:25:07;7.30;99.90
12130;DHT22;6128;59.340;18.040;2023-04-25T08:27:34;7.40;99.90
12130;DHT22;6128;59.340;18.040;2023-04-25T08:30:04;7.50;99.90
12130;DHT22;6128;59.340;18.040;2023-04-25T08:32:31;7.60;99.90
12130;DHT22;6128;59.340;18.040;2023-04-25T08:34:59;7.50;99.90
12130;DHT22;6128;59.340;18.040;2023-04-25T08:37:26;7.50;99.90
12130;DHT22;6128;59.340;18.040;2023-04-25T08:39:53;7.50;99.90
12130;DHT22;6128;59.340;18.040;2023-04-25T08:42:21;7.50;99.90
12130;DHT22;6128;59.340;18.040;2023-04-25T08:44:50;7.50;99.90
12130;DHT22;6128;59.340;18.040;2023-04-25T08:47:22;7.60;99.90
12130;DHT22;6128;59.340;18.040;2023-04-25T08:49:52;7.60;99.90
12130;DHT22;6128;59.340;18.040;2023-04-25T08:52:22;7.60;99.90
12130;DHT22;6128;59.340;18.040;2023-04-25T08:54:51;7.50;99.90
12130;DHT22;6128;59.340;18.040;2023-04-25T08:57:20;7.50;99.90
12130;DHT22;6128;59.340;18.040;2023-04-25T08:59:49;7.60;99.90
12130;DHT22;6128;59.340;18.040;2023-04-25T09:02:17;7.60;99.90
12130;DHT22;6128;59.340;18.040;2023-04-25T09:04:47;7.70;99.90
12130;DHT22;6128;59.340;18.040;2023-04-25T09:07:15;7.80;99.90
12130;DHT22;6128;59.340;18.040;2023-04-25T09:09:46;7.90;99.90
12130;DHT22;6128;59.340;18.040;2023-04-25T09:12:13;8.00;99.90
12130;DHT22;6128;59.340;18.040;2023-04-25T09:14:40;8.10;99.90
12130;DHT22;6128;59.340;18.040;2023-04-25T09:17:09;8.20;99.90
12130;DHT22;6128;59.340;18.040;2023-04-25T09:19:37;8.30;99.90
12130;DHT22;6128;59.340;18.040;2023-04-25T09:22:07;8.30;99.90
12130;DHT22;6128;59.340;18.040;2023-04-25T09:24:36;8.40;99.90
12130;DHT22;6128;59.340;18.040;2023-04-25T09:27:04;8.50;99.90
12130;DHT22;6128;59.340;18.040;2023-04-25T09:29:33;8.60;99.90
12130;DHT22;6128;59.340;18.040;2023-04-25T09:32:18;8.60;99.90
12130;DHT22;6128;59.340;18.040;2023-04-25T09:34:46;8.50;99.90
12130;DHT22;6128;59.340;18.040;2023-04-25T09:37:20;8.60;99.90
12130;DHT22;6128;59.340;18.040;2023-04-25T09:39:49;8.70;99.90
12130;DHT22;6128;59.340;18.040;2023-04-25T09:42:16;8.70;99.90
12130;DHT22;6128;59.340;18.040;2023-04-25T09:44:45;8.90;99.90
12130;DHT22;6128;59.340;18.040;2023-04-25T09:47:14;9.00;99.90
12130;DHT22;6128;59.340;18.040;2023-04-25T09:49:43;9.10;99.90
12130;DHT22;6128;59.340;18.040;2023-04-25T09:52:14;9.20;99.90
12130;DHT22;6128;59.340;18.040;2023-04-25T09:54:43;9.20;99.90
12130;DHT22;6128;59.340;18.040;2023-04-25T09:57:12;9.20;99.90
12130;DHT22;6128;59.340;18.040;2023-04-25T09:59:44;9.30;99.90
12130;DHT22;6128;59.340;18.040;2023-04-25T10:02:12;9.40;99.90
12130;DHT22;6128;59.340;18.040;2023-04-25T10:04:41;9.40;99.90
12130;DHT22;6128;59.340;18.040;2023-04-25T10:07:08;9.40;99.90
12130;DHT22;6128;59.340;18.040;2023-04-25T10:09:38;9.50;99.90
12130;DHT22;6128;59.340;18.040;2023-04-25T10:12:08;9.50;99.90
12130;DHT22;6128;59.340;18.040;2023-04-25T10:14:35;9.50;99.90
12130;DHT22;6128;59.340;18.040;2023-04-25T10:17:03;9.50;99.90
12130;DHT22;6128;59.340;18.040;2023-04-25T10:19:30;9.50;99.90
12130;DHT22;6128;59.340;18.040;2023-04-25T10:22:07;9.50;99.90
12130;DHT22;6128;59.340;18.040;2023-04-25T10:24:35;9.50;99.90
12130;DHT22;6128;59.340;18.040;2023-04-25T10:27:03;9.40;99.90
12130;DHT22;6128;59.340;18.040;2023-04-25T10:29:32;9.50;99.90
12130;DHT22;6128;59.340;18.040;2023-04-25T10:31:59;9.60;99.90
12130;DHT22;6128;59.340;18.040;2023-04-25T10:34:38;9.70;99.90
12130;DHT22;6128;59.340;18.040;2023-04-25T10:37:09;9.70;99.90
12130;DHT22;6128;59.340;18.040;2023-04-25T10:39:39;9.70;99.90
12130;DHT22;6128;59.340;18.040;2023-04-25T10:42:06;9.70;99.90
12130;DHT22;6128;59.340;18.040;2023-04-25T10:44:37;9.60;99.90
12130;DHT22;6128;59.340;18.040;2023-04-25T10:47:06;9.60;99.90
12130;DHT22;6128;59.340;18.040;2023-04-25T10:49:35;9.60;99.90
12130;DHT22;6128;59.340;18.040;2023-04-25T10:52:24;9.60;99.90
12130;DHT22;6128;59.340;18.040;2023-04-25T10:54:53;9.60;99.90
12130;DHT22;6128;59.340;18.040;2023-04-25T10:57:28;9.60;99.90
12130;DHT22;6128;59.340;18.040;2023-04-25T11:00:06;9.70;99.90
12130;DHT22;6128;59.340;18.040;2023-04-25T11:02:41;9.80;99.90
12130;DHT22;6128;59.340;18.040;2023-04-25T11:05:10;9.90;99.90
12130;DHT22;6128;59.340;18.040;2023-04-25T11:07:50;10.10;99.90
12130;DHT22;6128;59.340;18.040;2023-04-25T11:10:18;10.20;99.90
12130;DHT22;6128;59.340;18.040;2023-04-25T11:12:46;10.30;99.90
12130;DHT22;6128;59.340;18.040;2023-04-25T11:15:15;10.30;99.90
12130;DHT22;6128;59.340;18.040;2023-04-25T11:17:42;10.40;99.90
12130;DHT22;6128;59.340;18.040;2023-04-25T11:20:12;10.40;99.90
12130;DHT22;6128;59.340;18.040;2023-04-25T11:22:41;10.40;99.90
12130;DHT22;6128;59.340;18.040;2023-04-25T11:25:12;10.40;99.90
12130;DHT22;6128;59.340;18.040;2023-04-25T11:27:50;10.30;99.90
12130;DHT22;6128;59.340;18.040;2023-04-25T11:30:20;10.30;99.90
12130;DHT22;6128;59.340;18.040;2023-04-25T11:32:48;10.20;99.90
12130;DHT22;6128;59.340;18.040;2023-04-25T11:35:15;10.10;99.90
12130;DHT22;6128;59.340;18.040;2023-04-25T11:37:43;10.10;99.90
12130;DHT22;6128;59.340;18.040;2023-04-25T11:40:11;10.10;99.90
12130;DHT22;6128;59.340;18.040;2023-04-25T11:42:39;10.10;99.90
12130;DHT22;6128;59.340;18.040;2023-04-25T11:45:07;10.20;99.90
12130;DHT22;6128;59.340;18.040;2023-04-25T11:47:37;10.30;99.90
12130;DHT22;6128;59.340;18.040;2023-04-25T11:50:05;10.30;99.90
12130;DHT22;6128;59.340;18.040;2023-04-25T11:52:40;10.40;99.90
12130;DHT22;6128;59.340;18.040;2023-04-25T11:55:09;10.40;99.90
12130;DHT22;6128;59.340;18.040;2023-04-25T11:57:38;10.40;99.90
12130;DHT22;6128;59.340;18.040;2023-04-25T12:00:08;10.40;99.90
12130;DHT22;6128;59.340;18.040;2023-04-25T12:02:40;10.40;99.90
12130;DHT22;6128;59.340;18.040;2023-04-25T12:05:09;10.40;99.90
12130;DHT22;6128;59.340;18.040;2023-04-25T12:07:36;10.30;99.90
12130;DHT22;6128;59.340;18.040;2023-04-25T12:10:05;10.30;99.90
12130;DHT22;6128;59.340;18.040;2023-04-25T12:12:34;10.40;99.90
12130;DHT22;6128;59.340;18.040;2023-04-25T12:15:11;10.40;99.90
12130;DHT22;6128;59.340;18.040;2023-04-25T12:17:45;10.40;99.90
12130;DHT22;6128;59.340;18.040;2023-04-25T12:20:14;10.40;99.90
12130;DHT22;6128;59.340;18.040;2023-04-25T12:22:41;10.40;99.90
12130;DHT22;6128;59.340;18.040;2023-04-25T12:25:12;10.50;99.90
12130;DHT22;6128;59.340;18.040;2023-04-25T12:27:40;10.50;99.90
12130;DHT22;6128;59.340;18.040;2023-04-25T12:30:08;10.60;99.90
12130;DHT22;6128;59.340;18.040;2023-04-25T12:32:36;10.60;99.90
12130;DHT22;6128;59.340;18.040;2023-04-25T12:35:06;10.60;99.90
12130;DHT22;6128;59.340;18.040;2023-04-25T12:37:33;10.60;99.90
12130;DHT22;6128;59.340;18.040;2023-04-25T12:40:00;10.60;99.90
12130;DHT22;6128;59.340;18.040;2023-04-25T12:42:29;10.50;99.90
12130;DHT22;6128;59.340;18.040;2023-04-25T12:44:56;10.50;99.90
12130;DHT22;6128;59.340;18.040;2023-04-25T12:47:23;10.50;99.90
12130;DHT22;6128;59.340;18.040;2023-04-25T12:49:50;10.50;99.90
12130;DHT22;6128;59.340;18.040;2023-04-25T12:52:19;10.50;99.90
12130;DHT22;6128;59.340;18.040;2023-04-25T12:54:46;10.60;99.90
12130;DHT22;6128;59.340;18.040;2023-04-25T12:57:13;10.50;99.90
12130;DHT22;6128;59.340;18.040;2023-04-25T12:59:40;10.50;99.90
12130;DHT22;6128;59.340;18.040;2023-04-25T13:02:07;10.50;99.90
12130;DHT22;6128;59.340;18.040;2023-04-25T13:04:34;10.50;99.90
12130;DHT22;6128;59.340;18.040;2023-04-25T13:07:01;10.50;99.90
12130;DHT22;6128;59.340;18.040;2023-04-25T13:09:32;10.50;99.90
12130;DHT22;6128;59.340;18.040;2023-04-25T13:11:59;10.50;99.90
12130;DHT22;6128;59.340;18.040;2023-04-25T13:14:27;10.50;99.90
12130;DHT22;6128;59.340;18.040;2023-04-25T13:16:54;10.50;99.90
12130;DHT22;6128;59.340;18.040;2023-04-25T13:19:21;10.60;99.90
12130;DHT22;6128;59.340;18.040;2023-04-25T13:21:48;10.50;99.90
12130;DHT22;6128;59.340;18.040;2023-04-25T13:24:15;10.50;99.90
12130;DHT22;6128;59.340;18.040;2023-04-25T13:26:44;10.50;99.90
12130;DHT22;6128;59.340;18.040;2023-04-25T13:29:11;10.50;99.90
12130;DHT22;6128;59.340;18.040;2023-04-25T13:31:39;10.60;99.90
12130;DHT22;6128;59.340;18.040;2023-04-25T13:34:06;10.70;99.90
12130;DHT22;6128;59.340;18.040;2023-04-25T13:36:33;10.80;99.90
12130;DHT22;6128;59.340;18.040;2023-04-25T13:39:00;10.80;99.90
12130;DHT22;6128;59.340;18.040;2023-04-25T13:41:29;10.90;99.90
12130;DHT22;6128;59.340;18.040;2023-04-25T13:43:58;10.90;99.90
12130;DHT22;6128;59.340;18.040;2023-04-25T13:46:26;10.90;99.90
12130;DHT22;6128;59.340;18.040;2023-04-25T13:48:54;10.90;99.90
12130;DHT22;6128;59.340;18.040;2023-04-25T13:51:21;10.90;99.90
12130;DHT22;6128;59.340;18.040;2023-04-25T13:53:48;10.80;99.90
12130;DHT22;6128;59.340;18.040;2023-04-25T13:56:16;10.70;99.90
12130;DHT22;6128;59.340;18.040;2023-04-25T13:58:45;10.60;99.90
12130;DHT22;6128;59.340;18.040;2023-04-25T14:01:14;10.50;99.90
12130;DHT22;6128;59.340;18.040;2023-04-25T14:03:41;10.50;99.90
12130;DHT22;6128;59.340;18.040;2023-04-25T14:06:08;10.50;99.90
12130;DHT22;6128;59.340;18.040;2023-04-25T14:08:36;10.50;99.90
12130;DHT22;6128;59.340;18.040;2023-04-25T14:11:03;10.50;99.90
12130;DHT22;6128;59.340;18.040;2023-04-25T14:13:31;10.50;99.90
12130;DHT22;6128;59.340;18.040;2023-04-25T14:15:58;10.50;99.90
12130;DHT22;6128;59.340;18.040;2023-04-25T14:18:26;10.50;99.90
12130;DHT22;6128;59.340;18.040;2023-04-25T14:20:54;10.60;99.90
12130;DHT22;6128;59.340;18.040;2023-04-25T14:23:21;10.60;99.90
12130;DHT22;6128;59.340;18.040;2023-04-25T14:25:48;10.70;99.90
12130;DHT22;6128;59.340;18.040;2023-04-25T14:28:15;10.70;99.90
12130;DHT22;6128;59.340;18.040;2023-04-25T14:30:42;10.80;99.90
12130;DHT22;6128;59.340;18.040;2023-04-25T14:33:09;10.70;99.90
12130;DHT22;6128;59.340;18.040;2023-04-25T14:35:38;10.60;99.90
12130;DHT22;6128;59.340;18.040;2023-04-25T14:38:05;10.60;99.90
12130;DHT22;6128;59.340;18.040;2023-04-25T14:40:33;10.60;99.90
12130;DHT22;6128;59.340;18.040;2023-04-25T14:43:00;10.60;99.90
12130;DHT22;6128;59.340;18.040;2023-04-25T14:45:28;10.60;99.90
12130;DHT22;6128;59.340;18.040;2023-04-25T14:47:55;10.70;99.90
12130;DHT22;6128;59.340;18.040;2023-04-25T14:50:22;10.70;99.90
12130;DHT22;6128;59.340;18.040;2023-04-25T14:52:51;10.70;99.90
12130;DHT22;6128;59.340;18.040;2023-04-25T14:55:18;10.80;99.90
12130;DHT22;6128;59.340;18.040;2023-04-25T14:57:45;10.90;99.90
12130;DHT22;6128;59.340;18.040;2023-04-25T15:00:13;10.90;99.90
12130;DHT22;6128;59.340;18.040;2023-04-25T15:02:42;11.00;99.90
12130;DHT22;6128;59.340;18.040;2023-04-25T15:05:09;11.00;99.90
12130;DHT22;6128;59.340;18.040;2023-04-25T15:07:36;11.00;99.90
12130;DHT22;6128;59.340;18.040;2023-04-25T15:10:07;11.00;99.90
12130;DHT22;6128;59.340;18.040;2023-04-25T15:13:02;11.10;99.90
12130;DHT22;6128;59.340;18.040;2023-04-25T15:15:48;11.00;99.90
12130;DHT22;6128;59.340;18.040;2023-04-25T15:18:16;10.90;99.90
12130;DHT22;6128;59.340;18.040;2023-04-25T15:20:44;10.90;99.90
12130;DHT22;6128;59.340;18.040;2023-04-25T15:23:11;10.90;99.90
12130;DHT22;6128;59.340;18.040;2023-04-25T15:25:40;10.90;99.90
12130;DHT22;6128;59.340;18.040;2023-04-25T15:28:07;10.80;99.90
12130;DHT22;6128;59.340;18.040;2023-04-25T15:30:34;10.70;99.90
12130;DHT22;6128;59.340;18.040;2023-04-25T15:33:01;10.40;99.90
12130;DHT22;6128;59.340;18.040;2023-04-25T15:35:29;10.20;99.90
12130;DHT22;6128;59.340;18.040;2023-04-25T15:37:56;10.00;99.90
12130;DHT22;6128;59.340;18.040;2023-04-25T15:40:23;9.80;99.90
12130;DHT22;6128;59.340;18.040;2023-04-25T15:42:52;9.70;99.90
12130;DHT22;6128;59.340;18.040;2023-04-25T15:45:21;9.60;99.90
12130;DHT22;6128;59.340;18.040;2023-04-25T15:47:51;9.50;99.90
12130;DHT22;6128;59.340;18.040;2023-04-25T15:50:19;9.40;99.90